createdAt,value
2018-11-29T00:00:05.602Z,89.8
2018-11-29T00:01:14.755Z,89.7
2018-11-29T00:02:23.903Z,89.8
2018-11-29T00:03:33.049Z,89.8
2018-11-29T00:04:42.230Z,89.8
2018-11-29T00:05:51.357Z,89.8
2018-11-29T00:07:00.486Z,89.7
2018-11-29T00:08:09.675Z,89.8
2018-11-29T00:09:18.791Z,89.7
2018-11-29T00:10:27.938Z,89.7
2018-11-29T00:11:38.789Z,89.7
2018-11-29T00:12:48.082Z,89.7
2018-11-29T00:13:57.224Z,89.7
2018-11-29T00:15:06.226Z,90.2
2018-11-29T00:16:15.372Z,90.2
2018-11-29T00:17:24.526Z,90.4
2018-11-29T00:18:33.674Z,90.5
2018-11-29T00:19:42.837Z,90.7
2018-11-29T00:20:51.960Z,90.5
2018-11-29T00:22:01.097Z,90.4
2018-11-29T00:23:10.260Z,90.7
2018-11-29T00:24:19.404Z,90.5
2018-11-29T00:25:28.549Z,90.8
2018-11-29T00:26:37.705Z,90.9
2018-11-29T00:27:46.845Z,90.8
2018-11-29T00:28:55.998Z,90.8
2018-11-29T00:30:05.115Z,91
2018-11-29T00:31:14.291Z,91.3
2018-11-29T00:32:23.408Z,91.3
2018-11-29T00:33:32.569Z,91.1
2018-11-29T00:34:41.707Z,90.6
2018-11-29T00:35:50.850Z,90.7
2018-11-29T00:37:00.001Z,91
2018-11-29T00:38:09.141Z,91.4
2018-11-29T00:39:18.301Z,91
2018-11-29T00:40:27.426Z,90.9
2018-11-29T00:41:36.579Z,91.3
2018-11-29T00:42:45.731Z,91.5
2018-11-29T00:43:54.834Z,91.2
2018-11-29T00:45:03.993Z,91.6
2018-11-29T00:46:13.124Z,90.8
2018-11-29T00:47:22.292Z,91
2018-11-29T00:48:31.558Z,91.6
2018-11-29T00:49:40.601Z,91.6
2018-11-29T00:50:49.708Z,91.9
2018-11-29T00:51:58.909Z,91.7
2018-11-29T00:53:07.966Z,91.5
2018-11-29T00:54:17.126Z,91.8
2018-11-29T00:55:26.272Z,92
2018-11-29T00:56:35.465Z,91.4
2018-11-29T00:57:44.552Z,91.5
2018-11-29T00:58:53.688Z,91.4
2018-11-29T01:00:02.965Z,91.5
2018-11-29T01:01:12.023Z,91.8
2018-11-29T01:02:21.647Z,91.7
2018-11-29T01:03:30.268Z,92
2018-11-29T01:04:39.447Z,91.7
2018-11-29T01:05:48.537Z,91.9
2018-11-29T01:06:57.856Z,92.1
2018-11-29T01:08:07.176Z,92.2
2018-11-29T01:09:16.041Z,92.2
2018-11-29T01:10:25.097Z,91.9
2018-11-29T01:11:34.245Z,92.1
2018-11-29T01:12:43.390Z,92.3
2018-11-29T01:13:52.537Z,92.2
2018-11-29T01:15:01.660Z,92.3
2018-11-29T01:16:10.892Z,92.3
2018-11-29T01:17:19.938Z,92.3
2018-11-29T01:18:29.098Z,92.3
2018-11-29T01:19:38.302Z,92.3
2018-11-29T01:20:47.364Z,92.2
2018-11-29T01:21:56.524Z,91.9
2018-11-29T01:23:05.660Z,92.3
2018-11-29T01:24:14.797Z,92.3
2018-11-29T01:25:23.914Z,92.1
2018-11-29T01:26:33.133Z,92.3
2018-11-29T01:27:42.743Z,92.6
2018-11-29T01:28:51.437Z,92.2
2018-11-29T01:30:00.513Z,92.2
2018-11-29T01:31:09.620Z,92.2
2018-11-29T01:32:18.850Z,92.5
2018-11-29T01:33:27.877Z,92.5
2018-11-29T01:34:37.041Z,92.4
2018-11-29T01:35:46.183Z,92.6
2018-11-29T01:36:55.309Z,92.2
2018-11-29T01:38:04.450Z,92.2
2018-11-29T01:39:13.588Z,92.4
2018-11-29T01:40:22.711Z,92.2
2018-11-29T01:41:31.854Z,92.4
2018-11-29T01:42:41.152Z,92.6
2018-11-29T01:43:50.225Z,92.3
2018-11-29T01:44:59.274Z,92.4
2018-11-29T01:46:08.400Z,92.6
2018-11-29T01:47:17.570Z,92.6
2018-11-29T01:48:26.716Z,92.5
2018-11-29T01:49:36.154Z,92.5
2018-11-29T01:50:44.978Z,92.5
2018-11-29T01:51:54.091Z,92.8
2018-11-29T01:53:03.320Z,92.7
2018-11-29T01:54:12.353Z,92.4
2018-11-29T01:55:22.080Z,92.7
2018-11-29T01:56:30.923Z,92.7
2018-11-29T01:57:39.762Z,92.6
2018-11-29T01:58:49.491Z,92.7
2018-11-29T01:59:58.049Z,92.4
2018-11-29T02:01:07.189Z,92.2
2018-11-29T02:02:16.319Z,92.3
2018-11-29T02:03:25.438Z,92.7
2018-11-29T02:04:34.594Z,92.7
2018-11-29T02:05:43.726Z,91.5
2018-11-29T02:06:52.836Z,92.2
2018-11-29T02:08:02.005Z,92.2
2018-11-29T02:09:11.273Z,92.2
2018-11-29T02:10:20.251Z,92
2018-11-29T02:11:29.400Z,91.4
2018-11-29T02:12:38.527Z,91.6
2018-11-29T02:13:47.713Z,91.7
2018-11-29T02:14:56.800Z,91.8
2018-11-29T02:16:05.926Z,91.8
2018-11-29T02:17:15.094Z,91.5
2018-11-29T02:18:24.207Z,90.7
2018-11-29T02:19:33.355Z,91
2018-11-29T02:20:42.469Z,91.1
2018-11-29T02:21:51.605Z,91
2018-11-29T02:23:00.770Z,90.9
2018-11-29T02:24:09.897Z,90.5
2018-11-29T02:25:19.017Z,90.7
2018-11-29T02:26:28.171Z,90.2
2018-11-29T02:27:37.299Z,90.4
2018-11-29T02:28:46.423Z,89.7
2018-11-29T02:29:55.566Z,90.2
2018-11-29T02:31:04.717Z,90.3
2018-11-29T02:32:13.848Z,90.4
2018-11-29T02:33:22.970Z,90.1
2018-11-29T02:34:32.120Z,90.1
2018-11-29T02:35:41.256Z,90.3
2018-11-29T02:36:50.372Z,90.1
2018-11-29T02:37:59.510Z,90.2
2018-11-29T02:39:08.666Z,90.2
2018-11-29T02:40:17.811Z,89.4
2018-11-29T02:41:26.972Z,90.1
2018-11-29T02:42:36.088Z,89.4
2018-11-29T02:43:45.196Z,89.3
2018-11-29T02:44:54.348Z,89.3
2018-11-29T02:46:03.508Z,88.4
2018-11-29T02:47:12.676Z,89.4
2018-11-29T02:48:21.808Z,89.4
2018-11-29T02:49:30.886Z,89.4
2018-11-29T02:50:40.035Z,89.2
2018-11-29T02:51:49.163Z,89.4
2018-11-29T02:52:58.317Z,89.4
2018-11-29T02:54:07.449Z,89.4
2018-11-29T02:55:16.694Z,89.4
2018-11-29T02:56:26.116Z,88.5
2018-11-29T02:57:34.857Z,87.7
2018-11-29T02:58:44.051Z,88.2
2018-11-29T02:59:53.160Z,88.3
2018-11-29T03:01:02.269Z,87.6
2018-11-29T03:02:11.435Z,87.7
2018-11-29T03:03:20.547Z,87.9
2018-11-29T03:04:29.773Z,87.2
2018-11-29T03:05:38.859Z,87.3
2018-11-29T03:06:47.962Z,87.3
2018-11-29T03:07:57.165Z,87.3
2018-11-29T03:09:06.398Z,87.2
2018-11-29T03:10:15.379Z,86.6
2018-11-29T03:11:24.540Z,87.4
2018-11-29T03:12:33.668Z,86.8
2018-11-29T03:13:42.798Z,86.7
2018-11-29T03:14:51.939Z,87.4
2018-11-29T03:16:01.081Z,87.4
2018-11-29T03:17:10.258Z,87.7
2018-11-29T03:18:19.351Z,87.2
2018-11-29T03:19:28.538Z,86.7
2018-11-29T03:20:37.644Z,86.6
2018-11-29T03:21:46.789Z,87.1
2018-11-29T03:22:56.480Z,86.7
2018-11-29T03:24:05.074Z,86.7
2018-11-29T03:25:14.199Z,86.3
2018-11-29T03:26:23.341Z,86.4
2018-11-29T03:27:32.471Z,86.5
2018-11-29T03:28:41.608Z,87.2
2018-11-29T03:29:50.738Z,86.4
2018-11-29T03:30:59.880Z,86.2
2018-11-29T03:32:09.016Z,85.6
2018-11-29T03:33:18.156Z,85.7
2018-11-29T03:34:27.283Z,85.4
2018-11-29T03:35:36.431Z,85.7
2018-11-29T03:36:45.588Z,85.8
2018-11-29T03:37:54.707Z,85.8
2018-11-29T03:39:03.832Z,85.5
2018-11-29T03:40:12.967Z,86.1
2018-11-29T03:41:22.085Z,86.3
2018-11-29T03:42:31.229Z,86.3
2018-11-29T03:43:40.404Z,86
2018-11-29T03:44:49.492Z,85.3
2018-11-29T03:45:58.650Z,85.1
2018-11-29T03:47:07.830Z,84.6
2018-11-29T03:48:16.920Z,85
2018-11-29T03:49:26.216Z,84.7
2018-11-29T03:50:35.344Z,85.2
2018-11-29T03:51:44.363Z,84.6
2018-11-29T03:52:53.537Z,84
2018-11-29T03:54:02.594Z,85.2
2018-11-29T03:55:11.744Z,84.9
2018-11-29T03:56:20.897Z,84.6
2018-11-29T03:57:30.107Z,83.6
2018-11-29T03:58:39.159Z,83.6
2018-11-29T03:59:48.305Z,83.6
2018-11-29T04:00:57.518Z,83.6
2018-11-29T04:02:06.613Z,84
2018-11-29T04:03:15.717Z,83.6
2018-11-29T04:04:24.875Z,83.6
2018-11-29T04:05:35.432Z,83.6
2018-11-29T04:06:43.124Z,83.6
2018-11-29T04:07:52.263Z,83.7
2018-11-29T04:09:01.439Z,83.6
2018-11-29T04:10:10.619Z,83.4
2018-11-29T04:11:19.706Z,83
2018-11-29T04:12:28.854Z,82.7
2018-11-29T04:13:37.958Z,82.7
2018-11-29T04:14:47.096Z,83.1
2018-11-29T04:15:56.231Z,83.1
2018-11-29T04:17:05.390Z,82.4
2018-11-29T04:18:14.510Z,83.5
2018-11-29T04:19:23.671Z,82.6
2018-11-29T04:20:32.806Z,82.6
2018-11-29T04:21:41.954Z,81.9
2018-11-29T04:22:51.071Z,82.1
2018-11-29T04:24:00.197Z,81.3
2018-11-29T04:25:09.350Z,81.6
2018-11-29T04:26:18.489Z,80.8
2018-11-29T04:27:27.699Z,80.6
2018-11-29T04:28:36.779Z,80.3
2018-11-29T04:29:45.887Z,79.9
2018-11-29T04:30:55.022Z,80.1
2018-11-29T04:32:04.156Z,79.8
2018-11-29T04:33:13.390Z,80
2018-11-29T04:34:22.423Z,80
2018-11-29T04:35:31.563Z,79.3
2018-11-29T04:36:40.783Z,79.6
2018-11-29T04:37:49.849Z,79.6
2018-11-29T04:38:58.994Z,79.6
2018-11-29T04:40:08.207Z,79.9
2018-11-29T04:41:17.262Z,79.3
2018-11-29T04:42:26.393Z,79
2018-11-29T04:43:35.615Z,78.4
2018-11-29T04:44:44.685Z,78.3
2018-11-29T04:45:53.804Z,77.9
2018-11-29T04:47:02.969Z,78.1
2018-11-29T04:48:12.098Z,77.9
2018-11-29T04:49:21.298Z,77.9
2018-11-29T04:50:30.366Z,76.7
2018-11-29T04:51:40.235Z,77.9
2018-11-29T04:52:48.859Z,77.9
2018-11-29T04:53:57.798Z,77.9
2018-11-29T04:55:06.924Z,76.7
2018-11-29T04:56:16.090Z,76.9
2018-11-29T04:57:25.345Z,76
2018-11-29T04:58:34.341Z,76.2
2018-11-29T04:59:43.473Z,75.6
2018-11-29T05:00:52.607Z,76.5
2018-11-29T05:02:01.789Z,75.6
2018-11-29T05:03:10.937Z,75.4
2018-11-29T05:04:20.042Z,75.2
2018-11-29T05:05:29.171Z,74.4
2018-11-29T05:06:38.305Z,74.5
2018-11-29T05:07:47.556Z,74.6
2018-11-29T05:08:56.618Z,74.3
2018-11-29T05:10:05.733Z,74.7
2018-11-29T05:11:14.876Z,74.6
2018-11-29T05:12:24.013Z,73.8
2018-11-29T05:13:33.173Z,74.3
2018-11-29T05:14:42.302Z,74
2018-11-29T05:15:51.428Z,73.8
2018-11-29T05:17:00.607Z,73.1
2018-11-29T05:18:09.714Z,72.1
2018-11-29T05:19:18.910Z,72.8
2018-11-29T05:20:27.992Z,72.1
2018-11-29T05:21:37.145Z,72.1
2018-11-29T05:22:46.260Z,72.3
2018-11-29T05:23:55.399Z,72.1
2018-11-29T05:25:04.537Z,72.1
2018-11-29T05:26:13.839Z,72.1
2018-11-29T05:27:23.030Z,72.1
2018-11-29T05:28:32.580Z,71.7
2018-11-29T05:29:41.589Z,70.7
2018-11-29T05:30:51.095Z,70.6
2018-11-29T05:32:00.135Z,70.4
2018-11-29T05:33:08.677Z,70.4
2018-11-29T05:34:17.765Z,70.3
2018-11-29T05:35:26.803Z,70.1
2018-11-29T05:36:35.953Z,70.2
2018-11-29T05:37:45.145Z,70.4
2018-11-29T05:38:54.297Z,69.6
2018-11-29T05:40:03.626Z,70.3
2018-11-29T05:41:12.549Z,69.8
2018-11-29T05:42:21.957Z,69.5
2018-11-29T05:43:31.001Z,68.6
2018-11-29T05:44:40.042Z,68.9
2018-11-29T05:45:49.080Z,69.1
2018-11-29T05:46:58.224Z,69.7
2018-11-29T05:48:07.934Z,69.8
2018-11-29T05:49:16.515Z,68.3
2018-11-29T05:50:25.760Z,67.5
2018-11-29T05:51:34.852Z,67.5
2018-11-29T05:52:43.910Z,67.6
2018-11-29T05:53:53.050Z,67.7
2018-11-29T05:55:02.171Z,67.2
2018-11-29T05:56:11.318Z,67.3
2018-11-29T05:57:20.476Z,66.6
2018-11-29T05:58:29.602Z,67
2018-11-29T05:59:38.750Z,67.3
2018-11-29T06:01:57.105Z,66.4
2018-11-29T06:03:06.157Z,66.7
2018-11-29T06:04:15.290Z,67.1
2018-11-29T06:05:24.438Z,66
2018-11-29T06:06:33.584Z,66
2018-11-29T06:07:43.012Z,66
2018-11-29T06:08:51.945Z,65.6
2018-11-29T06:10:01.005Z,66.1
2018-11-29T06:11:10.155Z,66
2018-11-29T06:12:19.299Z,66
2018-11-29T06:13:28.435Z,66.1
2018-11-29T06:14:37.567Z,66
2018-11-29T06:15:46.696Z,66.1
2018-11-29T06:16:55.893Z,66
2018-11-29T06:18:04.994Z,66.1
2018-11-29T06:19:14.124Z,65.3
2018-11-29T06:20:23.270Z,66
2018-11-29T06:21:32.394Z,66
2018-11-29T06:22:41.569Z,66
2018-11-29T06:23:50.683Z,66
2018-11-29T06:24:59.834Z,65.7
2018-11-29T06:26:08.977Z,65.7
2018-11-29T06:27:18.126Z,65
2018-11-29T06:28:27.260Z,65.4
2018-11-29T06:29:36.428Z,65
2018-11-29T06:30:45.522Z,64.8
2018-11-29T06:31:54.658Z,64.5
2018-11-29T06:33:03.818Z,64.9
2018-11-29T06:34:12.950Z,64.4
2018-11-29T06:35:22.079Z,65
2018-11-29T06:36:31.235Z,64.8
2018-11-29T06:37:40.365Z,64.9
2018-11-29T06:38:49.514Z,65.1
2018-11-29T06:39:58.661Z,64.6
2018-11-29T06:41:07.801Z,64.9
2018-11-29T06:42:17.001Z,64.1
2018-11-29T06:43:26.105Z,64
2018-11-29T06:44:35.234Z,64.5
2018-11-29T06:45:44.371Z,63.8
2018-11-29T06:46:53.505Z,64
2018-11-29T06:48:02.643Z,64.2
2018-11-29T06:49:11.786Z,63.9
2018-11-29T06:50:20.951Z,63.8
2018-11-29T06:51:30.078Z,64.3
2018-11-29T06:52:39.238Z,63.4
2018-11-29T06:53:48.366Z,64.1
2018-11-29T06:54:57.584Z,63.8
2018-11-29T06:56:06.668Z,63.3
2018-11-29T06:57:15.814Z,63
2018-11-29T06:58:24.968Z,63.1
2018-11-29T06:59:34.588Z,63.3
2018-11-29T07:00:43.188Z,63.5
2018-11-29T07:01:52.349Z,63.1
2018-11-29T07:03:01.484Z,62.5
2018-11-29T07:04:10.635Z,62.9
2018-11-29T07:05:19.796Z,62.6
2018-11-29T07:06:28.908Z,62.9
2018-11-29T07:07:38.055Z,62.6
2018-11-29T07:08:47.187Z,62.3
2018-11-29T07:09:56.345Z,62.3
2018-11-29T07:11:05.471Z,62.1
2018-11-29T07:12:14.623Z,62.5
2018-11-29T07:13:23.786Z,61.9
2018-11-29T07:14:32.883Z,62.1
2018-11-29T07:15:42.066Z,61.8
2018-11-29T07:16:51.181Z,61.3
2018-11-29T07:18:00.322Z,61.6
2018-11-29T07:19:14.876Z,61.1
2018-11-29T07:20:18.610Z,61.2
2018-11-29T07:21:27.771Z,61.1
2018-11-29T07:22:36.980Z,61
2018-11-29T07:23:46.025Z,61.2
2018-11-29T07:24:55.182Z,60.8
2018-11-29T07:26:04.308Z,60.1
2018-11-29T07:27:13.456Z,60
2018-11-29T07:28:22.598Z,59.9
2018-11-29T07:29:31.756Z,59.9
2018-11-29T07:30:40.939Z,59.9
2018-11-29T07:31:50.042Z,59.9
2018-11-29T07:32:59.183Z,60
2018-11-29T07:34:08.315Z,60
2018-11-29T07:35:17.466Z,59.8
2018-11-29T07:36:26.609Z,59.5
2018-11-29T07:37:35.757Z,59.8
2018-11-29T07:38:44.895Z,58.9
2018-11-29T07:39:54.044Z,58.9
2018-11-29T07:41:03.201Z,59
2018-11-29T07:42:12.325Z,59.2
2018-11-29T07:43:21.510Z,59.3
2018-11-29T07:44:30.677Z,60
2018-11-29T07:45:39.779Z,58.3
2018-11-29T07:46:48.921Z,59.3
2018-11-29T07:47:58.077Z,58.5
2018-11-29T07:49:07.203Z,58.4
2018-11-29T07:50:16.340Z,57.9
2018-11-29T07:51:25.501Z,57.4
2018-11-29T07:52:34.708Z,57.6
2018-11-29T07:53:43.793Z,56.8
2018-11-29T07:54:52.956Z,57.2
2018-11-29T07:56:02.113Z,56.9
2018-11-29T07:57:11.317Z,56.6
2018-11-29T07:58:20.473Z,55.7
2018-11-29T07:59:29.634Z,56.1
2018-11-29T08:00:38.736Z,55.7
2018-11-29T08:01:47.963Z,55.8
2018-11-29T08:02:57.026Z,56
2018-11-29T08:04:06.182Z,55.7
2018-11-29T08:05:15.302Z,55.2
2018-11-29T08:06:24.459Z,56.1
2018-11-29T08:07:33.667Z,56.3
2018-11-29T08:08:42.766Z,55.9
2018-11-29T08:09:51.932Z,56.2
2018-11-29T08:11:01.109Z,55.6
2018-11-29T08:12:10.224Z,55.6
2018-11-29T08:13:19.417Z,56.4
2018-11-29T08:14:28.563Z,55.6
2018-11-29T08:15:37.715Z,56.2
2018-11-29T08:16:46.982Z,55.9
2018-11-29T08:17:56.102Z,54.8
2018-11-29T08:19:05.165Z,55.7
2018-11-29T08:20:14.312Z,54.6
2018-11-29T08:21:23.470Z,54.8
2018-11-29T08:22:32.623Z,55.1
2018-11-29T08:23:41.785Z,54.8
2018-11-29T08:24:50.982Z,54.1
2018-11-29T08:26:00.170Z,54.2
2018-11-29T08:27:09.262Z,54.9
2018-11-29T08:28:18.420Z,54
2018-11-29T08:29:27.584Z,53.5
2018-11-29T08:30:36.759Z,53.5
2018-11-29T08:31:45.963Z,53.4
2018-11-29T08:32:55.051Z,53.5
2018-11-29T08:35:13.391Z,53.5
2018-11-29T08:36:22.545Z,53
2018-11-29T08:37:31.697Z,51
2018-11-29T08:38:41.014Z,51.4
2018-11-29T08:39:50.048Z,51.8
2018-11-29T08:40:59.192Z,51.2
2018-11-29T08:42:08.357Z,50.5
2018-11-29T08:43:17.531Z,50.7
2018-11-29T08:44:26.729Z,50
2018-11-29T08:45:35.867Z,50.6
2018-11-29T08:46:45.046Z,50.8
2018-11-29T08:47:54.211Z,51.1
2018-11-29T08:49:03.515Z,51.2
2018-11-29T08:50:12.563Z,51.6
2018-11-29T08:51:21.719Z,52.2
2018-11-29T08:52:30.904Z,51.4
2018-11-29T08:53:40.133Z,51.3
2018-11-29T08:54:49.870Z,50.7
2018-11-29T08:55:58.416Z,51.4
2018-11-29T08:57:08.127Z,52.1
2018-11-29T08:58:16.768Z,52
2018-11-29T08:59:26.067Z,51.3
2018-11-29T09:00:35.066Z,51.1
2018-11-29T09:01:44.266Z,51.5
2018-11-29T09:02:53.433Z,51.4
2018-11-29T09:04:02.588Z,51.4
2018-11-29T09:05:11.770Z,50.7
2018-11-29T09:06:20.964Z,51.4
2018-11-29T09:07:30.521Z,50.8
2018-11-29T09:08:39.273Z,50.5
2018-11-29T09:09:48.454Z,50.6
2018-11-29T09:10:57.632Z,50.8
2018-11-29T09:12:06.938Z,50.4
2018-11-29T09:13:15.976Z,50.4
2018-11-29T09:14:25.128Z,50.3
2018-11-29T09:15:34.297Z,50
2018-11-29T09:16:43.477Z,50.4
2018-11-29T09:17:52.648Z,50
2018-11-29T09:19:01.834Z,50.5
2018-11-29T09:20:10.990Z,50
2018-11-29T09:21:20.152Z,49.4
2018-11-29T09:22:29.364Z,49.4
2018-11-29T09:23:38.543Z,49.1
2018-11-29T09:24:47.736Z,48.9
2018-11-29T09:25:56.878Z,48.7
2018-11-29T09:27:06.016Z,48.7
2018-11-29T09:28:15.209Z,48.4
2018-11-29T09:29:24.404Z,47.3
2018-11-29T09:30:33.571Z,47.9
2018-11-29T09:31:42.882Z,47.8
2018-11-29T09:32:51.926Z,47.3
2018-11-29T09:34:01.100Z,47.8
2018-11-29T09:35:10.287Z,48.3
2018-11-29T09:36:19.453Z,47.2
2018-11-29T09:37:28.640Z,47.7
2018-11-29T09:38:37.927Z,47.5
2018-11-29T09:39:47.005Z,47.5
2018-11-29T09:40:56.185Z,47.3
2018-11-29T09:42:05.370Z,47.2
2018-11-29T09:43:14.562Z,47.5
2018-11-29T09:44:23.733Z,47.4
2018-11-29T09:45:32.913Z,47.4
2018-11-29T09:46:42.103Z,47.4
2018-11-29T09:47:51.291Z,47
2018-11-29T09:49:00.464Z,47.2
2018-11-29T09:50:09.659Z,47
2018-11-29T09:51:18.833Z,46.4
2018-11-29T09:52:28.017Z,46.9
2018-11-29T09:53:37.219Z,46.4
2018-11-29T09:54:46.369Z,46.1
2018-11-29T09:55:55.590Z,46.2
2018-11-29T09:57:04.760Z,45.4
2018-11-29T09:58:14.109Z,45.3
2018-11-29T09:59:23.157Z,44.9
2018-11-29T10:00:32.299Z,45.5
2018-11-29T10:01:41.711Z,45.3
2018-11-29T10:02:50.684Z,45.6
2018-11-29T10:03:59.860Z,45.4
2018-11-29T10:05:09.037Z,45.6
2018-11-29T10:06:18.247Z,45.5
2018-11-29T10:07:27.407Z,45.3
2018-11-29T10:08:36.627Z,44.9
2018-11-29T10:09:45.905Z,45.1
2018-11-29T10:10:54.999Z,44.9
2018-11-29T10:12:04.161Z,44.4
2018-11-29T10:13:13.359Z,44.9
2018-11-29T10:14:22.533Z,44.7
2018-11-29T10:15:31.738Z,44.9
2018-11-29T10:16:40.989Z,44.8
2018-11-29T10:17:50.150Z,44.6
2018-11-29T10:18:59.304Z,44.1
2018-11-29T10:20:08.509Z,43.4
2018-11-29T10:21:17.832Z,43.3
2018-11-29T10:22:26.884Z,42.3
2018-11-29T10:23:36.062Z,42.2
2018-11-29T10:24:45.262Z,41.2
2018-11-29T10:25:54.444Z,41.2
2018-11-29T10:27:03.668Z,41.8
2018-11-29T10:28:12.841Z,41.8
2018-11-29T10:29:22.050Z,42.2
2018-11-29T10:30:31.307Z,42.7
2018-11-29T10:31:40.460Z,41.2
2018-11-29T10:32:49.639Z,41.3
2018-11-29T10:33:58.918Z,41.4
2018-11-29T10:35:08.210Z,41.3
2018-11-29T10:36:17.249Z,41.2
2018-11-29T10:37:26.563Z,41.2
2018-11-29T10:38:35.657Z,41.2
2018-11-29T10:39:44.965Z,41.2
2018-11-29T10:40:54.070Z,41.4
2018-11-29T10:42:03.342Z,40.8
2018-11-29T10:43:12.531Z,41.5
2018-11-29T10:44:21.699Z,41.6
2018-11-29T10:45:30.986Z,40.9
2018-11-29T10:46:40.183Z,40.7
2018-11-29T10:47:52.849Z,40.3
2018-11-29T10:48:58.558Z,41.6
2018-11-29T10:50:07.793Z,40.1
2018-11-29T10:51:16.991Z,40
2018-11-29T10:52:26.232Z,40
2018-11-29T10:53:38.161Z,39.8
2018-11-29T10:54:44.632Z,39.7
2018-11-29T10:55:53.867Z,39.6
2018-11-29T10:57:03.088Z,39.6
2018-11-29T10:58:12.434Z,39.9
2018-11-29T10:59:21.518Z,40.2
2018-11-29T11:00:30.892Z,40.1
2018-11-29T11:01:39.954Z,40.7
2018-11-29T11:02:49.180Z,41.4
2018-11-29T11:03:58.405Z,41.1
2018-11-29T11:05:07.612Z,40.4
2018-11-29T11:06:16.848Z,39.8
2018-11-29T11:07:26.075Z,40.4
2018-11-29T11:08:35.267Z,39.8
2018-11-29T11:09:44.493Z,39.8
2018-11-29T11:10:53.713Z,40
2018-11-29T11:12:02.975Z,39.5
2018-11-29T11:13:12.149Z,39.9
2018-11-29T11:14:21.355Z,38.4
2018-11-29T11:15:30.592Z,38.8
2018-11-29T11:16:39.789Z,38.9
2018-11-29T11:17:49.016Z,38.5
2018-11-29T11:18:58.339Z,38.7
2018-11-29T11:20:07.448Z,38
2018-11-29T11:21:16.749Z,38.3
2018-11-29T11:22:26.086Z,38.6
2018-11-29T11:23:35.093Z,38.5
2018-11-29T11:24:44.360Z,37.9
2018-11-29T11:25:53.624Z,37.5
2018-11-29T11:27:02.777Z,37.5
2018-11-29T11:28:12.028Z,37.6
2018-11-29T11:29:21.231Z,37.4
2018-11-29T11:30:30.436Z,37.7
2018-11-29T11:31:39.680Z,37.3
2018-11-29T11:32:48.899Z,36.8
2018-11-29T11:33:58.118Z,36.8
2018-11-29T11:35:07.343Z,37.3
2018-11-29T11:36:16.593Z,37.7
2018-11-29T11:37:25.930Z,36.9
2018-11-29T11:38:35.042Z,36.9
2018-11-29T11:39:44.285Z,37.1
2018-11-29T11:40:53.504Z,37
2018-11-29T11:42:02.704Z,37.3
2018-11-29T11:43:12.045Z,37
2018-11-29T11:44:21.207Z,37.2
2018-11-29T11:45:30.415Z,36.9
2018-11-29T11:46:40.296Z,37
2018-11-29T11:47:48.960Z,37.1
2018-11-29T11:48:58.121Z,36.9
2018-11-29T11:50:11.055Z,36.4
2018-11-29T11:51:16.571Z,36.5
2018-11-29T11:52:25.878Z,36.5
2018-11-29T11:53:35.028Z,36.8
2018-11-29T11:54:44.288Z,36.7
2018-11-29T11:55:54.255Z,37.2
2018-11-29T11:57:02.728Z,36.3
2018-11-29T11:58:12.131Z,36.5
2018-11-29T11:59:21.318Z,36.7
2018-11-29T12:00:30.418Z,36.8
2018-11-29T12:01:39.737Z,37.1
2018-11-29T12:02:48.891Z,37.5
2018-11-29T12:03:58.146Z,36.9
2018-11-29T12:05:07.374Z,37.2
2018-11-29T12:06:16.597Z,37.1
2018-11-29T12:07:25.936Z,36.7
2018-11-29T12:08:35.054Z,37.1
2018-11-29T12:09:44.328Z,37
2018-11-29T12:10:53.523Z,36.7
2018-11-29T12:12:02.799Z,36.3
2018-11-29T12:13:12.103Z,36.3
2018-11-29T12:14:21.263Z,36.8
2018-11-29T12:15:30.449Z,36.9
2018-11-29T12:16:39.747Z,36.5
2018-11-29T12:17:49.685Z,36.6
2018-11-29T12:19:02.572Z,37
2018-11-29T12:20:07.387Z,36.6
2018-11-29T12:21:16.624Z,37.2
2018-11-29T12:22:25.902Z,36.7
2018-11-29T12:23:35.092Z,36.6
2018-11-29T12:24:44.384Z,36.3
2018-11-29T12:25:53.550Z,36.8
2018-11-29T12:27:02.802Z,37.2
2018-11-29T12:28:12.074Z,36.7
2018-11-29T12:29:21.299Z,37
2018-11-29T12:30:31.364Z,37
2018-11-29T12:31:39.739Z,36.7
2018-11-29T12:32:48.982Z,36.1
2018-11-29T12:33:58.205Z,36.5
2018-11-29T12:35:07.466Z,36.3
2018-11-29T12:36:16.709Z,36.2
2018-11-29T12:37:25.958Z,36.2
2018-11-29T12:38:35.182Z,35.9
2018-11-29T12:39:44.383Z,36.1
2018-11-29T12:40:53.632Z,35.8
2018-11-29T12:42:02.910Z,35.6
2018-11-29T12:43:12.183Z,35.9
2018-11-29T12:44:21.376Z,36
2018-11-29T12:45:30.559Z,36
2018-11-29T12:46:39.788Z,35.3
2018-11-29T12:47:49.068Z,35.7
2018-11-29T12:48:58.271Z,35.8
2018-11-29T12:50:07.502Z,36.1
2018-11-29T12:51:16.902Z,36
2018-11-29T12:52:25.992Z,35.5
2018-11-29T12:53:35.203Z,35.2
2018-11-29T12:54:44.611Z,35.1
2018-11-29T12:55:53.674Z,35.4
2018-11-29T12:57:02.898Z,35.2
2018-11-29T12:58:12.131Z,35.1
2018-11-29T12:59:21.388Z,35.3
2018-11-29T13:00:30.701Z,35.3
2018-11-29T13:01:39.828Z,35.3
2018-11-29T13:02:49.060Z,35.3
2018-11-29T13:03:58.359Z,34.8
2018-11-29T13:05:07.546Z,34.8
2018-11-29T13:06:16.786Z,34.8
2018-11-29T13:07:26.022Z,34.3
2018-11-29T13:08:35.297Z,34.4
2018-11-29T13:09:44.503Z,34.1
2018-11-29T13:10:53.731Z,34.1
2018-11-29T13:12:03.023Z,34.4
2018-11-29T13:13:12.276Z,33.9
2018-11-29T13:14:21.575Z,34.2
2018-11-29T13:15:31.195Z,34.1
2018-11-29T13:16:39.943Z,33.8
2018-11-29T13:17:49.154Z,34
2018-11-29T13:18:58.400Z,34
2018-11-29T13:20:07.669Z,33.9
2018-11-29T13:21:16.901Z,33.6
2018-11-29T13:22:26.139Z,34
2018-11-29T13:23:35.369Z,33.2
2018-11-29T13:24:44.603Z,33.5
2018-11-29T13:25:53.845Z,33.6
2018-11-29T13:27:03.089Z,33.7
2018-11-29T13:28:12.546Z,33.8
2018-11-29T13:29:21.567Z,33.1
2018-11-29T13:30:30.815Z,33.6
2018-11-29T13:31:40.086Z,33.1
2018-11-29T13:32:49.277Z,33.2
2018-11-29T13:33:58.548Z,33
2018-11-29T13:35:07.788Z,33.1
2018-11-29T13:36:17.034Z,33.1
2018-11-29T13:37:26.426Z,33.2
2018-11-29T13:38:35.618Z,33.3
2018-11-29T13:39:44.737Z,33.2
2018-11-29T13:40:54.051Z,33.1
2018-11-29T13:42:03.200Z,33.1
2018-11-29T13:43:12.455Z,32.7
2018-11-29T13:44:21.688Z,33
2018-11-29T13:45:30.964Z,33.1
2018-11-29T13:46:40.152Z,33.1
2018-11-29T13:47:49.433Z,32.5
2018-11-29T13:48:58.647Z,33
2018-11-29T13:50:07.907Z,32.8
2018-11-29T13:51:17.127Z,33.1
2018-11-29T13:52:26.354Z,32.7
2018-11-29T13:53:35.683Z,32.9
2018-11-29T13:54:44.835Z,33
2018-11-29T13:55:54.084Z,32.6
2018-11-29T13:57:03.326Z,32.9
2018-11-29T13:58:12.533Z,32.7
2018-11-29T13:59:21.772Z,32.9
2018-11-29T14:00:31.016Z,32.9
2018-11-29T14:01:40.264Z,32.8
2018-11-29T14:02:49.487Z,32.5
2018-11-29T14:03:58.718Z,32.9
2018-11-29T14:05:07.942Z,32.7
2018-11-29T14:06:17.196Z,32.6
2018-11-29T14:07:26.404Z,32.5
2018-11-29T14:08:35.674Z,32.6
2018-11-29T14:09:44.893Z,32.3
2018-11-29T14:10:54.108Z,32.4
2018-11-29T14:12:03.350Z,32.2
2018-11-29T14:13:12.570Z,32.7
2018-11-29T14:14:21.859Z,32.3
2018-11-29T14:15:31.055Z,32.6
2018-11-29T14:16:40.309Z,32.7
2018-11-29T14:17:49.510Z,32.2
2018-11-29T14:18:58.823Z,32.6
2018-11-29T14:20:08.051Z,32.4
2018-11-29T14:21:17.237Z,32.4
2018-11-29T14:22:26.464Z,32.5
2018-11-29T14:23:35.703Z,32
2018-11-29T14:24:44.930Z,32.3
2018-11-29T14:25:54.202Z,32.4
2018-11-29T14:27:03.462Z,32
2018-11-29T14:28:12.645Z,32.5
2018-11-29T14:29:21.871Z,32.3
2018-11-29T14:30:31.113Z,32.2
2018-11-29T14:31:40.328Z,32.1
2018-11-29T14:32:51.010Z,32.4
2018-11-29T14:34:00.248Z,32.3
2018-11-29T14:35:09.499Z,31.8
2018-11-29T14:36:18.738Z,31.8
2018-11-29T14:37:27.946Z,31.5
2018-11-29T14:38:37.172Z,31.9
2018-11-29T14:39:46.406Z,31.9
2018-11-29T14:40:55.661Z,32
2018-11-29T14:42:04.856Z,31.8
2018-11-29T14:43:14.108Z,31.7
2018-11-29T14:44:23.338Z,31.6
2018-11-29T14:45:32.581Z,32
2018-11-29T14:46:41.793Z,32.2
2018-11-29T14:47:51.036Z,31.6
2018-11-29T14:49:00.286Z,32.3
2018-11-29T14:50:09.544Z,32.3
2018-11-29T14:51:18.749Z,31.9
2018-11-29T14:52:27.964Z,32.2
2018-11-29T14:53:37.277Z,31.9
2018-11-29T14:54:46.427Z,32.1
2018-11-29T14:55:55.667Z,32.3
2018-11-29T14:57:04.897Z,31.6
2018-11-29T14:58:20.032Z,31.7
2018-11-29T14:59:23.343Z,31.6
2018-11-29T15:00:32.575Z,31.8
2018-11-29T15:01:41.925Z,31.9
2018-11-29T15:02:51.050Z,31.8
2018-11-29T15:04:00.319Z,32
2018-11-29T15:05:09.512Z,32.1
2018-11-29T15:06:18.798Z,32.2
2018-11-29T15:07:27.956Z,32.1
2018-11-29T15:08:37.193Z,32.6
2018-11-29T15:09:46.426Z,32.2
2018-11-29T15:10:55.655Z,32.4
2018-11-29T15:12:04.913Z,32.2
2018-11-29T15:13:14.130Z,32.5
2018-11-29T15:14:23.320Z,32.4
2018-11-29T15:15:32.604Z,32.6
2018-11-29T15:16:41.928Z,33
2018-11-29T15:17:51.021Z,32.7
2018-11-29T15:19:00.220Z,32.5
2018-11-29T15:20:09.763Z,32.5
2018-11-29T15:21:18.663Z,32.8
2018-11-29T15:22:27.899Z,33
2018-11-29T15:23:37.279Z,33.2
2018-11-29T15:24:46.613Z,33.1
2018-11-29T15:25:55.635Z,33.1
2018-11-29T15:27:04.817Z,33
2018-11-29T15:28:14.044Z,32.7
2018-11-29T15:29:23.277Z,32.9